Time;durP1;ratioP1;P1;durP2;ratioP2;P2;SDS_P1;SDS_P2;PMS_P1;PMS_P2;Temp;Humidity;BMP_temperature;BMP_pressure;BME280_temperature;BME280_humidity;BME280_pressure;Samples;Min_cycle;Max_cycle;Signal;HPM_P1;HPM_P2
2022/01/22 00:00:54;;;;;;;14.67;6.97;;;;;;;-4.01;89.30;94996.63;5073667;28;20193;-86
2022/01/22 00:03:24;;;;;;;18.17;7.57;;;;;;;-4.04;88.93;95001.19;5073599;28;20315;-85
2022/01/22 00:05:53;;;;;;;15.97;6.87;;;;;;;-4.10;89.15;94994.81;5071754;28;20296;-84
2022/01/22 00:08:21;;;;;;;14.17;5.80;;;;;;;-4.06;89.10;95000.47;5071474;28;20197;-84
2022/01/22 00:10:51;;;;;;;13.20;4.87;;;;;;;-4.17;89.35;94996.25;5067881;28;20246;-85
2022/01/22 00:16:05;;;;;;;12.20;5.20;;;;;;;-4.19;89.79;95002.38;5070794;28;20204;-85
2022/01/22 00:18:33;;;;;;;8.73;4.80;;;;;;;-4.30;90.25;95005.72;5073458;28;20194;-85
2022/01/22 00:21:01;;;;;;;12.43;5.93;;;;;;;-4.35;89.76;94990.06;5070604;28;20564;-86
2022/01/22 00:23:55;;;;;;;16.60;6.77;;;;;;;-4.10;89.45;95006.72;5072218;28;20584;-86
2022/01/22 00:26:23;;;;;;;11.87;6.70;;;;;;;-3.96;89.07;95013.25;5066775;28;20243;-84
2022/01/22 00:28:51;;;;;;;14.10;7.07;;;;;;;-3.90;88.56;95003.41;5069032;28;20194;-87
2022/01/22 00:31:20;;;;;;;14.80;6.83;;;;;;;-3.93;88.24;94995.25;5084925;28;20700;-79
2022/01/22 00:33:49;;;;;;;15.20;7.03;;;;;;;-3.86;88.61;95006.50;5084741;28;20236;-78
2022/01/22 00:36:32;;;;;;;15.10;6.90;;;;;;;-3.78;88.08;95009.25;5076717;28;20234;-87
2022/01/22 00:38:59;;;;;;;16.13;6.97;;;;;;;-3.70;87.17;95005.16;5066888;28;20730;-81
2022/01/22 00:41:28;;;;;;;13.47;6.07;;;;;;;-3.68;87.31;95008.38;5078666;28;20201;-79
2022/01/22 00:43:56;;;;;;;9.93;5.80;;;;;;;-3.68;86.33;95005.03;5075263;28;20882;-79
2022/01/22 00:46:25;;;;;;;14.63;7.00;;;;;;;-3.65;85.83;95010.69;5075346;28;20212;-79
2022/01/22 00:48:54;;;;;;;17.67;6.80;;;;;;;-3.74;86.25;95011.41;5079197;28;20215;-78
2022/01/22 00:51:21;;;;;;;16.00;6.80;;;;;;;-3.74;86.06;95018.22;5085999;28;20201;-81
2022/01/22 00:53:50;;;;;;;17.27;6.60;;;;;;;-3.78;86.71;95012.56;5082145;28;20220;-82
2022/01/22 00:56:18;;;;;;;16.80;6.60;;;;;;;-3.83;87.18;95007.06;5084370;28;20202;-82
2022/01/22 00:58:45;;;;;;;11.47;5.53;;;;;;;-3.86;86.45;95006.50;5087288;28;20696;-81
2022/01/22 01:01:14;;;;;;;11.27;6.00;;;;;;;-3.78;86.52;95014.31;5072215;28;20233;-82
2022/01/22 01:03:44;;;;;;;8.73;4.60;;;;;;;-3.88;86.70;94993.13;5080785;28;20295;-81
2022/01/22 01:06:13;;;;;;;12.00;4.90;;;;;;;-3.77;86.24;95003.22;5069142;28;20288;-81
2022/01/22 01:08:42;;;;;;;11.93;4.70;;;;;;;-3.76;86.56;95015.81;5088394;28;20652;-81
2022/01/22 01:11:15;;;;;;;10.57;4.07;;;;;;;-3.71;86.90;95012.88;5088665;28;20963;-82
2022/01/22 01:13:46;;;;;;;8.13;4.20;;;;;;;-3.65;86.27;95008.13;5087429;28;20816;-82
2022/01/22 01:16:21;;;;;;;8.50;4.33;;;;;;;-3.69;86.38;95001.69;5082011;28;20197;-82
2022/01/22 01:32:44;;;;;;;7.90;4.20;;;;;;;-3.57;84.95;94982.13;5083458;28;20228;-82
2022/01/22 01:35:16;;;;;;;9.23;4.37;;;;;;;-3.51;84.56;94982.44;5079820;28;20225;-82
2022/01/22 01:37:45;;;;;;;8.13;3.97;;;;;;;-3.46;84.36;94972.69;5077880;28;20204;-83
2022/01/22 01:40:17;;;;;;;10.90;4.87;;;;;;;-3.42;84.38;94967.38;5088751;28;20660;-83
2022/01/22 01:42:49;;;;;;;6.80;4.00;;;;;;;-3.39;83.56;94972.19;5089063;28;20208;-82
2022/01/22 01:45:18;;;;;;;9.03;4.47;;;;;;;-3.46;84.01;94969.34;5077482;28;20224;-82
2022/01/22 01:47:54;;;;;;;10.10;4.60;;;;;;;-3.46;83.99;94972.69;5081298;28;20207;-80
2022/01/22 01:50:24;;;;;;;6.27;3.70;;;;;;;-3.40;83.17;94968.03;5087554;28;20211;-80
2022/01/22 01:53:07;;;;;;;5.43;3.70;;;;;;;-3.36;83.09;94970.22;5080829;28;20296;-80
2022/01/22 01:55:48;;;;;;;6.03;3.63;;;;;;;-3.28;83.21;94959.41;5088543;28;20192;-81
2022/01/22 01:58:15;;;;;;;7.17;4.43;;;;;;;-3.35;82.96;94965.94;5086181;28;20291;-81
2022/01/22 02:00:43;;;;;;;9.77;4.47;;;;;;;-3.42;82.44;94969.91;5083802;28;20288;-81
2022/01/22 02:03:13;;;;;;;14.23;5.70;;;;;;;-3.41;82.77;94964.72;5085342;28;20201;-80
2022/01/22 02:05:42;;;;;;;13.90;5.90;;;;;;;-3.45;83.13;94969.25;5084164;28;20213;-82
2022/01/22 02:08:13;;;;;;;10.77;6.17;;;;;;;-3.46;83.08;94972.69;5081801;28;20224;-83
2022/01/22 02:10:46;;;;;;;16.07;6.30;;;;;;;-3.66;83.58;94965.09;5084918;28;20668;-82
2022/01/22 02:24:16;;;;;;;6.97;4.17;;;;;;;-3.60;82.12;94960.31;5077737;28;20201;-79
2022/01/22 02:26:48;;;;;;;6.17;4.00;;;;;;;-3.60;82.32;94952.72;5068200;28;20247;-80
2022/01/22 02:29:16;;;;;;;8.77;3.90;;;;;;;-3.64;82.78;94951.38;5072998;28;20285;-80
2022/01/22 02:31:59;;;;;;;10.80;4.67;;;;;;;-3.62;82.19;94952.03;5085895;28;20640;-81
2022/01/22 02:34:36;;;;;;;15.73;5.77;;;;;;;-3.58;81.68;94947.53;5092128;28;20299;-80
2022/01/22 02:37:12;;;;;;;12.97;5.83;;;;;;;-3.57;81.77;94949.91;5084971;28;20659;-80
2022/01/22 02:39:44;;;;;;;11.37;5.43;;;;;;;-3.70;82.01;94946.78;5092919;28;20207;-80
2022/01/22 02:42:13;;;;;;;19.07;6.63;;;;;;;-3.69;81.70;94948.38;5079614;28;20668;-79
2022/01/22 02:44:45;;;;;;;11.97;4.53;;;;;;;-3.73;82.34;94946.22;5084644;28;20192;-80
2022/01/22 02:47:15;;;;;;;6.80;4.00;;;;;;;-3.80;81.92;94942.56;5083686;28;20228;-78
2022/01/22 02:49:44;;;;;;;7.43;4.07;;;;;;;-3.89;82.39;94948.38;5079741;28;20208;-79
2022/01/22 02:52:13;;;;;;;9.87;4.20;;;;;;;-3.93;82.99;94945.28;5091581;28;20622;-79
2022/01/22 02:54:42;;;;;;;6.80;4.47;;;;;;;-3.96;82.83;94950.63;5089504;28;20244;-78
2022/01/22 02:57:11;;;;;;;11.80;5.90;;;;;;;-4.01;82.67;94950.16;5078006;28;20277;-78
2022/01/22 02:59:39;;;;;;;13.67;6.30;;;;;;;-3.99;82.02;94950.06;5079573;28;20270;-79
2022/01/22 03:02:12;;;;;;;13.23;6.23;;;;;;;-3.90;82.62;94950.13;5090435;28;20283;-78
2022/01/22 03:04:40;;;;;;;13.40;5.27;;;;;;;-3.84;82.68;94948.81;5085662;28;20228;-78
2022/01/22 03:07:09;;;;;;;9.87;4.43;;;;;;;-3.84;81.85;94942.03;5078796;28;20254;-78
2022/01/22 03:09:42;;;;;;;7.10;3.80;;;;;;;-3.91;82.54;94930.75;5092128;28;20200;-79
2022/01/22 03:12:33;;;;;;;5.70;3.17;;;;;;;-3.90;82.50;94931.56;5085626;28;20208;-78
2022/01/22 03:17:54;;;;;;;7.07;3.60;;;;;;;-3.98;82.56;94919.47;5077541;28;20208;-79
2022/01/22 03:20:39;;;;;;;14.13;5.17;;;;;;;-4.04;82.05;94917.44;5079386;28;20302;-78
2022/01/22 03:23:10;;;;;;;5.47;3.77;;;;;;;-4.09;81.25;94904.31;5075604;28;20206;-78
2022/01/22 03:28:29;;;;;;;9.83;3.87;;;;;;;-4.11;81.55;94913.78;5085817;28;20584;-80
2022/01/22 03:30:57;;;;;;;8.97;4.63;;;;;;;-4.12;81.90;94909.63;5079360;28;20288;-80
2022/01/22 03:33:25;;;;;;;9.90;4.47;;;;;;;-4.21;81.53;94906.09;5081248;28;20643;-80
2022/01/22 03:35:56;;;;;;;8.37;4.73;;;;;;;-4.21;81.53;94893.41;5084079;28;20209;-80
2022/01/22 03:38:25;;;;;;;8.23;4.60;;;;;;;-4.27;82.29;94886.28;5092085;28;20236;-83
2022/01/22 03:40:54;;;;;;;12.93;5.50;;;;;;;-4.18;82.31;94894.91;5087086;28;20752;-83
2022/01/22 03:43:23;;;;;;;11.83;5.80;;;;;;;-4.27;81.99;94876.16;5092972;28;20185;-83
2022/01/22 03:45:53;;;;;;;12.90;5.27;;;;;;;-4.22;82.31;94894.38;5092633;28;20192;-84
2022/01/22 03:48:21;;;;;;;14.40;5.50;;;;;;;-4.20;82.24;94895.03;5069112;28;20303;-84
2022/01/22 03:50:49;;;;;;;12.33;5.70;;;;;;;-4.14;81.81;94896.28;5084257;28;20200;-84
2022/01/22 03:53:17;;;;;;;10.07;6.20;;;;;;;-4.13;82.54;94892.81;5080449;28;20211;-83
2022/01/22 03:55:54;;;;;;;10.53;5.70;;;;;;;-4.08;81.58;94894.06;5077585;28;20217;-83
2022/01/22 03:58:24;;;;;;;14.23;7.10;;;;;;;-4.09;81.73;94889.09;5072363;28;20201;-81
2022/01/22 04:01:07;;;;;;;13.53;6.90;;;;;;;-4.10;82.23;94879.88;5081134;28;20223;-81
2022/01/22 04:03:41;;;;;;;19.17;7.17;;;;;;;-3.97;81.02;94890.63;5071957;28;20197;-82
2022/01/22 04:06:37;;;;;;;14.40;6.97;;;;;;;-3.93;81.48;94886.94;5077976;28;20634;-82
2022/01/22 04:09:09;;;;;;;14.53;7.40;;;;;;;-3.97;81.00;94877.94;5060847;28;20829;-84
2022/01/22 04:11:40;;;;;;;10.80;6.33;;;;;;;-3.93;81.83;94886.13;5080872;28;20216;-80
2022/01/22 04:14:16;;;;;;;15.27;6.67;;;;;;;-3.93;81.18;94886.13;5081857;28;20217;-80
2022/01/22 04:16:58;;;;;;;12.43;6.63;;;;;;;-4.01;80.86;94879.13;5086784;28;20196;-79
2022/01/22 04:24:56;;;;;;;10.53;5.00;;;;;;;-3.94;80.18;94899.72;5089689;28;20192;-79
2022/01/22 04:27:27;;;;;;;11.63;5.40;;;;;;;-3.94;80.67;94897.19;5089534;28;20209;-79
2022/01/22 04:29:59;;;;;;;13.73;6.20;;;;;;;-3.98;80.86;94883.16;5088744;28;20192;-79
2022/01/22 04:32:27;;;;;;;13.07;6.73;;;;;;;-4.04;81.75;94884.47;5089271;28;20593;-79
2022/01/22 04:34:55;;;;;;;20.73;8.30;;;;;;;-4.02;81.43;94873.25;5089292;28;21091;-79
2022/01/22 04:37:25;;;;;;;22.90;8.60;;;;;;;-4.02;82.09;94870.72;5082792;28;20671;-79
2022/01/22 04:39:53;;;;;;;20.30;8.17;;;;;;;-4.06;82.70;94859.22;5076576;28;20212;-80
2022/01/22 04:42:23;;;;;;;16.87;8.10;;;;;;;-4.23;83.56;94861.50;5089722;28;20254;-80
2022/01/22 04:44:57;;;;;;;13.40;5.97;;;;;;;-4.39;85.50;94864.47;5089422;28;20744;-80
2022/01/22 04:47:35;;;;;;;10.93;4.70;;;;;;;-4.54;87.30;94860.63;5076065;28;20208;-80
2022/01/22 04:55:29;;;;;;;11.47;5.43;;;;;;;-4.43;88.07;94847.88;5063980;28;20228;-80
2022/01/22 04:57:58;;;;;;;14.87;6.23;;;;;;;-4.49;88.02;94845.84;5063885;28;20209;-81
2022/01/22 05:00:27;;;;;;;12.93;6.00;;;;;;;-4.69;89.18;94834.75;5064037;28;20305;-80
2022/01/22 05:02:57;;;;;;;12.43;5.20;;;;;;;-4.73;89.42;94835.91;5070731;28;20209;-81
2022/01/22 05:05:25;;;;;;;9.10;5.00;;;;;;;-4.69;89.49;94852.50;5084062;28;20284;-82
2022/01/22 05:07:53;;;;;;;15.03;7.10;;;;;;;-4.60;90.06;94849.25;5091054;28;20200;-83
2022/01/22 05:10:23;;;;;;;19.40;6.60;;;;;;;-4.45;91.49;94856.53;5082704;28;20267;-80
2022/01/22 05:12:53;;;;;;;12.80;6.03;;;;;;;-4.40;91.16;94841.75;5076236;28;20303;-80
2022/01/22 05:15:23;;;;;;;8.73;5.07;;;;;;;-4.37;91.51;94833.91;5089531;28;20204;-81
2022/01/22 05:17:51;;;;;;;8.17;5.27;;;;;;;-4.31;91.34;94830.88;5076988;28;20680;-83
2022/01/22 05:20:25;;;;;;;10.73;5.23;;;;;;;-4.30;89.93;94819.81;5071571;28;20204;-82
2022/01/22 05:23:04;;;;;;;22.33;7.73;;;;;;;-4.42;89.37;94816.53;5080906;28;20719;-82
2022/01/22 05:25:37;;;;;;;21.17;9.97;;;;;;;-4.41;89.49;94835.88;5070067;28;20236;-81
2022/01/22 05:28:36;;;;;;;21.70;8.67;;;;;;;-4.54;90.20;94834.47;5074772;28;20197;-79
2022/01/22 05:31:20;;;;;;;16.23;7.20;;;;;;;-4.52;89.90;94838.47;5073441;28;20232;-79
2022/01/22 05:39:29;;;;;;;17.03;7.07;;;;;;;-4.21;87.20;94842.69;5081043;28;20272;-79
2022/01/22 05:41:58;;;;;;;17.23;7.13;;;;;;;-4.14;87.00;94841.28;5081166;28;20196;-80
2022/01/22 05:44:26;;;;;;;15.00;7.27;;;;;;;-4.01;86.75;94856.28;5081796;28;20216;-79
2022/01/22 05:46:57;;;;;;;15.80;6.43;;;;;;;-4.04;87.76;94859.88;5085356;28;20204;-79
2022/01/22 05:49:27;;;;;;;16.47;6.77;;;;;;;-4.02;88.34;94847.91;5090296;28;20200;-79
2022/01/22 05:52:01;;;;;;;14.00;7.23;;;;;;;-4.02;88.81;94845.34;5089145;28;20200;-80
2022/01/22 05:54:51;;;;;;;15.67;7.70;;;;;;;-4.00;88.88;94852.81;5083348;28;20699;-80
2022/01/22 06:00:05;;;;;;;22.23;7.93;;;;;;;-3.99;89.42;94841.75;5079528;28;20671;-79
2022/01/22 06:02:33;;;;;;;17.10;8.73;;;;;;;-4.02;89.86;94849.63;5091445;28;20211;-80
2022/01/22 06:05:01;;;;;;;15.83;7.57;;;;;;;-3.99;89.77;94841.75;5091472;28;20219;-80
2022/01/22 06:07:31;;;;;;;19.00;7.57;;;;;;;-3.99;90.08;94826.53;5085310;28;20667;-79
2022/01/22 06:10:15;;;;;;;20.07;8.53;;;;;;;-4.01;89.93;94831.72;5086193;28;20287;-81
2022/01/22 06:12:47;;;;;;;18.40;9.10;;;;;;;-4.24;90.10;94821.88;5092650;28;20203;-79
2022/01/22 06:15:15;;;;;;;21.87;9.73;;;;;;;-4.25;92.23;94826.13;5092651;28;20213;-83
2022/01/22 06:17:43;;;;;;;22.97;9.53;;;;;;;-4.21;90.66;94834.25;5081371;28;20205;-80
2022/01/22 06:20:13;;;;;;;19.20;8.47;;;;;;;-4.23;91.03;94826.81;5086766;28;20231;-80
2022/01/22 06:22:44;;;;;;;20.57;9.73;;;;;;;-4.26;91.33;94829.59;5093959;28;20215;-79
2022/01/22 06:25:13;;;;;;;26.43;11.90;;;;;;;-4.24;90.77;94832.00;5091917;28;20672;-82
2022/01/22 06:27:41;;;;;;;20.37;9.90;;;;;;;-4.18;90.21;94826.41;5085830;28;20738;-80
2022/01/22 06:30:11;;;;;;;16.17;8.23;;;;;;;-4.16;89.17;94822.03;5085161;28;20229;-81
2022/01/22 06:32:40;;;;;;;16.13;7.23;;;;;;;-4.17;89.05;94828.03;5091599;28;20283;-80
2022/01/22 06:35:09;;;;;;;16.67;7.73;;;;;;;-4.22;88.13;94836.03;5082667;28;20683;-80
2022/01/22 06:37:37;;;;;;;17.67;8.77;;;;;;;-4.29;89.17;94829.00;5078470;28;20261;-81
2022/01/22 06:42:52;;;;;;;28.13;11.30;;;;;;;-4.17;87.92;94820.41;5078710;28;20606;-81
2022/01/22 06:45:20;;;;;;;24.57;9.97;;;;;;;-4.00;87.92;94814.78;5072824;28;20641;-82
2022/01/22 06:47:47;;;;;;;25.43;10.23;;;;;;;-4.03;87.16;94809.94;5074316;28;20190;-83
2022/01/22 06:50:15;;;;;;;24.03;10.67;;;;;;;-3.97;87.52;94814.53;5075788;28;20581;-83
2022/01/22 06:52:44;;;;;;;24.37;10.27;;;;;;;-3.88;86.69;94823.91;5067964;28;20703;-83
2022/01/22 06:55:16;;;;;;;24.80;11.50;;;;;;;-3.82;86.58;94805.66;5074258;28;20224;-81
2022/01/22 06:57:44;;;;;;;27.93;11.73;;;;;;;-3.76;86.45;94812.75;5081010;28;20200;-81
2022/01/22 07:00:13;;;;;;;27.10;11.97;;;;;;;-3.66;85.94;94810.22;5078633;28;20223;-81
2022/01/22 07:02:41;;;;;;;28.50;10.73;;;;;;;-3.65;85.45;94804.22;5075311;28;20195;-80
2022/01/22 07:05:09;;;;;;;27.50;12.33;;;;;;;-3.62;84.81;94804.78;5077129;28;20271;-83
2022/01/22 07:07:37;;;;;;;25.53;10.87;;;;;;;-3.64;84.28;94810.94;5071248;28;20285;-86
2022/01/22 07:10:06;;;;;;;31.13;12.87;;;;;;;-3.64;84.73;94805.84;5074888;28;20602;-84
2022/01/22 07:12:35;;;;;;;33.47;12.93;;;;;;;-3.65;84.92;94805.03;5083266;28;20204;-81
2022/01/22 07:15:04;;;;;;;24.37;10.27;;;;;;;-3.65;85.34;94810.13;5074618;28;20220;-74
2022/01/22 07:17:36;;;;;;;28.90;12.60;;;;;;;-3.56;85.36;94811.06;5073246;28;20205;-76
2022/01/22 07:20:10;;;;;;;33.10;14.27;;;;;;;-3.54;85.15;94792.25;5072322;28;20190;-75
2022/01/22 07:22:47;;;;;;;23.80;12.40;;;;;;;-3.49;86.41;94802.00;5075194;28;20270;-76
2022/01/22 07:25:16;;;;;;;18.13;7.83;;;;;;;-3.53;86.24;94796.41;5070158;28;20193;-75
2022/01/22 07:27:47;;;;;;;10.77;5.57;;;;;;;-3.59;87.08;94807.06;5072046;28;20196;-75
2022/01/22 07:30:15;;;;;;;13.43;6.67;;;;;;;-3.69;88.47;94790.19;5075337;28;20200;-76
2022/01/22 07:32:44;;;;;;;11.60;5.57;;;;;;;-3.61;88.89;94791.13;5075109;28;20780;-75
2022/01/22 07:35:14;;;;;;;7.20;4.30;;;;;;;-3.53;86.56;94793.06;5072603;28;20730;-74
2022/01/22 07:37:44;;;;;;;9.13;5.80;;;;;;;-3.50;86.55;94787.72;5087352;28;20220;-75
2022/01/22 07:40:13;;;;;;;11.33;5.53;;;;;;;-3.52;87.46;94782.75;5081995;28;20200;-75
2022/01/22 07:42:41;;;;;;;12.57;5.53;;;;;;;-3.56;88.07;94763.66;5074204;28;20199;-75
2022/01/22 07:45:11;;;;;;;20.63;8.90;;;;;;;-3.25;87.45;94782.16;5075733;28;20209;-75
2022/01/22 07:47:40;;;;;;;12.03;6.20;;;;;;;-3.11;86.06;94793.66;5073544;28;20652;-75
2022/01/22 07:50:09;;;;;;;15.70;7.40;;;;;;;-3.10;86.44;94787.66;5073079;28;20731;-74
2022/01/22 07:52:36;;;;;;;12.40;6.70;;;;;;;-3.22;87.76;94784.44;5087757;28;20584;-75
2022/01/22 07:55:06;;;;;;;15.67;6.40;;;;;;;-3.24;86.51;94781.22;5086115;28;20328;-75
2022/01/22 07:57:36;;;;;;;19.97;9.57;;;;;;;-3.13;85.63;94793.81;5070539;28;20205;-74
2022/01/22 08:00:06;;;;;;;21.63;10.00;;;;;;;-3.06;84.64;94796.63;5075026;28;20199;-74
2022/01/22 08:02:35;;;;;;;17.93;8.67;;;;;;;-3.03;83.42;94796.38;5070841;28;20204;-75
2022/01/22 08:05:04;;;;;;;18.77;9.63;;;;;;;-3.00;83.68;94793.56;5069616;28;20200;-75
2022/01/22 08:07:32;;;;;;;21.67;9.77;;;;;;;-3.05;83.80;94791.41;5072796;28;20201;-74
2022/01/22 08:09:59;;;;;;;19.47;8.70;;;;;;;-3.07;84.64;94784.84;5080953;28;20318;-82
2022/01/22 08:12:28;;;;;;;19.17;9.53;;;;;;;-3.09;85.44;94784.19;5084100;28;20201;-80
2022/01/22 08:14:56;;;;;;;18.83;9.43;;;;;;;-3.23;86.43;94775.19;5089304;28;20196;-81
2022/01/22 08:17:24;;;;;;;15.87;8.20;;;;;;;-3.13;86.53;94770.13;5081256;28;20200;-79
2022/01/22 08:19:55;;;;;;;15.97;7.83;;;;;;;-3.15;86.13;94761.84;5089350;28;20582;-80
2022/01/22 08:22:25;;;;;;;20.87;9.40;;;;;;;-3.08;85.51;94760.38;5090319;28;20200;-80
2022/01/22 08:24:54;;;;;;;17.17;8.83;;;;;;;-3.04;85.01;94759.97;5083718;28;20216;-82
2022/01/22 08:27:34;;;;;;;21.63;10.00;;;;;;;-3.09;85.39;94757.00;5072849;28;20251;-80
2022/01/22 08:30:03;;;;;;;12.90;7.10;;;;;;;-3.13;85.24;94754.88;5064618;28;20675;-82
2022/01/22 08:32:58;;;;;;;12.40;6.47;;;;;;;-3.01;83.89;94762.25;5071555;28;20237;-81
2022/01/22 08:38:09;;;;;;;12.77;6.17;;;;;;;-3.18;85.35;94764.66;5071100;28;20231;-77
2022/01/22 08:40:38;;;;;;;15.50;7.13;;;;;;;-3.10;85.57;94762.25;5072441;28;20220;-78
2022/01/22 08:43:06;;;;;;;13.93;6.10;;;;;;;-3.12;86.90;94753.97;5074355;28;20206;-76
2022/01/22 08:45:34;;;;;;;10.77;5.23;;;;;;;-3.18;86.53;94757.84;5069078;28;20342;-78
2022/01/22 08:48:02;;;;;;;15.77;7.60;;;;;;;-3.10;86.84;94765.59;5072748;28;20209;-77
2022/01/22 08:50:34;;;;;;;15.27;7.37;;;;;;;-3.03;86.25;94764.09;5071819;28;20189;-76
2022/01/22 08:53:02;;;;;;;10.00;5.00;;;;;;;-3.09;86.24;94749.38;5071843;28;20251;-77
2022/01/22 08:55:30;;;;;;;7.27;4.47;;;;;;;-3.13;85.63;94748.06;5073440;28;20561;-79
2022/01/22 08:57:58;;;;;;;13.07;5.17;;;;;;;-3.14;86.79;94764.22;5072902;28;20236;-79
2022/01/22 09:00:25;;;;;;;9.80;4.53;;;;;;;-3.05;84.78;94772.81;5072533;28;20190;-79
2022/01/22 09:02:53;;;;;;;6.73;3.70;;;;;;;-3.14;84.61;94763.44;5074896;28;20197;-79
2022/01/22 09:05:25;;;;;;;8.70;5.30;;;;;;;-3.11;86.20;94765.72;5073313;28;20752;-77
2022/01/22 09:07:54;;;;;;;14.47;7.73;;;;;;;-2.96;86.15;94772.81;5069124;28;20664;-76
2022/01/22 09:10:22;;;;;;;17.33;7.80;;;;;;;-2.92;86.25;94769.09;5084093;28;20204;-75
2022/01/22 09:12:50;;;;;;;7.97;4.10;;;;;;;-2.77;84.12;94774.53;5089130;28;20236;-77
2022/01/22 09:15:19;;;;;;;7.33;4.23;;;;;;;-3.00;84.38;94763.06;5074482;28;20983;-81
2022/01/22 09:17:48;;;;;;;12.27;6.27;;;;;;;-3.09;85.72;94767.19;5073197;28;20201;-82
2022/01/22 09:20:30;;;;;;;8.27;4.77;;;;;;;-3.09;85.65;94763.84;5084156;28;20214;-78
2022/01/22 09:23:00;;;;;;;11.90;5.80;;;;;;;-3.12;87.37;94759.03;5069978;28;20665;-78
2022/01/22 09:25:28;;;;;;;10.77;5.30;;;;;;;-2.87;85.17;94763.59;5080533;28;20200;-76
2022/01/22 09:27:56;;;;;;;9.43;5.50;;;;;;;-2.75;83.49;94764.25;5077010;28;20679;-80
2022/01/22 09:30:23;;;;;;;15.87;7.63;;;;;;;-2.69;83.78;94767.06;5081660;28;20204;-83
2022/01/22 09:32:52;;;;;;;12.40;5.47;;;;;;;-2.74;82.16;94761.56;5081019;28;20290;-78
2022/01/22 09:35:21;;;;;;;8.20;4.57;;;;;;;-2.79;81.24;94757.81;5074960;28;20198;-77
2022/01/22 09:37:49;;;;;;;11.63;4.73;;;;;;;-2.73;80.53;94754.75;5082761;28;20209;-77
2022/01/22 09:40:18;;;;;;;14.10;6.63;;;;;;;-2.67;81.74;94737.22;5086635;28;20205;-78
2022/01/22 09:42:46;;;;;;;13.60;6.63;;;;;;;-2.61;80.93;94748.59;5083457;28;20656;-77
2022/01/22 09:45:15;;;;;;;13.27;6.27;;;;;;;-2.63;81.59;94751.28;5080054;28;20208;-77
2022/01/22 09:47:48;;;;;;;14.90;7.27;;;;;;;-2.64;81.12;94728.50;5087061;28;20205;-78
2022/01/22 09:50:18;;;;;;;15.10;7.43;;;;;;;-2.67;81.42;94710.97;5089206;28;20215;-78
2022/01/22 09:52:47;;;;;;;14.73;6.73;;;;;;;-2.63;81.03;94712.31;5092312;28;20973;-84
2022/01/22 09:55:19;;;;;;;24.47;12.10;;;;;;;-2.51;81.49;94698.50;5069554;28;20239;-84
2022/01/22 09:57:46;;;;;;;25.80;11.50;;;;;;;-2.41;79.57;94696.72;5080475;28;20839;-85
2022/01/22 10:00:18;;;;;;;13.03;7.07;;;;;;;-2.34;79.06;94701.13;5084725;28;20211;-85
2022/01/22 10:02:47;;;;;;;23.10;10.47;;;;;;;-1.98;78.48;94702.06;5083888;28;20603;-85
2022/01/22 10:05:31;;;;;;;22.77;10.43;;;;;;;-0.86;76.13;94711.78;5089093;28;20276;-86
2022/01/22 10:08:25;;;;;;;9.50;5.63;;;;;;;0.30;71.63;94706.25;5077569;28;20212;-84
2022/01/22 10:10:55;;;;;;;16.10;7.93;;;;;;;1.67;68.37;94709.00;5073511;28;20205;-84
2022/01/22 10:13:47;;;;;;;17.53;9.10;;;;;;;2.87;64.71;94699.22;5078274;28;20304;-77
2022/01/22 10:16:19;;;;;;;19.27;9.03;;;;;;;3.48;62.54;94710.34;5076743;28;20225;-78
2022/01/22 10:18:47;;;;;;;15.73;8.23;;;;;;;3.69;61.99;94695.88;5087710;28;20667;-78
2022/01/22 10:21:20;;;;;;;13.33;7.67;;;;;;;4.82;59.34;94698.94;5087786;28;20956;-78
2022/01/22 10:23:49;;;;;;;16.57;7.27;;;;;;;4.50;58.91;94703.50;5088627;28;20297;-78
2022/01/22 10:26:22;;;;;;;19.30;9.60;;;;;;;5.23;54.18;94694.81;5083361;28;20202;-78
2022/01/22 10:28:55;;;;;;;18.20;9.37;;;;;;;4.79;52.45;94691.59;5083907;28;20648;-78
2022/01/22 10:31:29;;;;;;;21.67;11.33;;;;;;;5.39;52.54;94683.47;5075292;28;20213;-78
2022/01/22 10:34:09;;;;;;;7.97;4.90;;;;;;;5.04;51.82;94690.25;5069662;28;20236;-79
2022/01/22 10:36:37;;;;;;;12.37;6.90;;;;;;;5.06;51.39;94678.78;5085678;28;20217;-79
2022/01/22 10:39:09;;;;;;;15.20;7.77;;;;;;;5.05;51.59;94672.03;5083735;28;20296;-78
2022/01/22 10:41:41;;;;;;;22.67;10.00;;;;;;;4.46;52.26;94665.47;5091330;28;20203;-78
2022/01/22 10:44:12;;;;;;;14.10;7.20;;;;;;;4.36;50.63;94676.03;5085204;28;20672;-78
2022/01/22 10:46:49;;;;;;;15.43;7.43;;;;;;;4.30;49.47;94671.59;5089468;28;20224;-78
2022/01/22 10:49:24;;;;;;;11.03;6.03;;;;;;;4.10;49.55;94644.84;5077491;28;20582;-77
2022/01/22 10:51:54;;;;;;;15.13;7.23;;;;;;;3.88;49.94;94646.53;5091666;28;20201;-78
2022/01/22 10:54:24;;;;;;;16.90;8.63;;;;;;;3.64;49.96;94653.69;5085216;28;20274;-78
2022/01/22 10:56:55;;;;;;;12.90;7.03;;;;;;;2.93;51.65;94641.28;5084396;28;20225;-80
2022/01/22 10:59:25;;;;;;;8.60;5.60;;;;;;;3.51;51.93;94646.59;5090374;28;20204;-78
2022/01/22 11:01:55;;;;;;;13.57;6.30;;;;;;;3.98;50.25;94647.06;5084323;28;20293;-78
2022/01/22 11:04:25;;;;;;;13.93;6.43;;;;;;;4.36;50.07;94662.38;5090472;28;20212;-78
2022/01/22 11:06:55;;;;;;;16.37;8.23;;;;;;;4.40;49.80;94643.84;5076496;28;20609;-77
2022/01/22 11:09:26;;;;;;;12.33;6.43;;;;;;;3.81;50.05;94637.94;5072454;28;20212;-79
2022/01/22 11:11:56;;;;;;;12.10;5.57;;;;;;;2.31;52.85;94589.28;5090783;28;20569;-79
2022/01/22 11:14:23;;;;;;;19.43;8.00;;;;;;;1.75;55.09;94628.75;5091050;28;20678;-78
2022/01/22 11:16:52;;;;;;;22.33;10.40;;;;;;;1.33;55.83;94629.81;5084564;28;20289;-78
2022/01/22 11:19:22;;;;;;;9.67;5.80;;;;;;;0.79;57.31;94630.47;5074887;28;20218;-77
2022/01/22 11:21:52;;;;;;;13.40;6.37;;;;;;;0.13;59.73;94617.75;5070496;28;20231;-77
2022/01/22 11:24:22;;;;;;;14.60;6.30;;;;;;;-0.08;61.15;94618.16;5080470;28;20263;-77
2022/01/22 11:26:52;;;;;;;20.40;8.73;;;;;;;-0.23;61.66;94614.59;5089502;28;20736;-78
2022/01/22 11:29:24;;;;;;;18.93;9.40;;;;;;;-0.57;63.77;94604.38;5082935;28;20200;-78
2022/01/22 11:31:54;;;;;;;14.53;6.53;;;;;;;-0.86;64.16;94589.38;5091163;28;20234;-78
2022/01/22 11:34:27;;;;;;;16.33;6.13;;;;;;;-0.82;64.81;94603.44;5063163;28;20705;-77
2022/01/22 11:37:00;;;;;;;16.63;7.43;;;;;;;-0.97;65.21;94597.28;5083577;28;20733;-79
2022/01/22 11:39:29;;;;;;;16.60;6.70;;;;;;;-0.93;65.01;94600.34;5078602;28;20237;-78
2022/01/22 11:41:59;;;;;;;18.63;6.70;;;;;;;-1.08;66.32;94596.72;5084581;28;20288;-78
2022/01/22 11:44:46;;;;;;;12.17;7.00;;;;;;;-1.16;67.04;94600.03;5070955;28;20212;-78
2022/01/22 11:47:15;;;;;;;12.43;5.73;;;;;;;-1.02;67.05;94598.69;5077153;28;20201;-78
2022/01/22 11:50:06;;;;;;;5.20;3.77;;;;;;;-1.17;67.55;94603.50;5077046;28;20209;-78
2022/01/22 11:52:37;;;;;;;10.83;4.30;;;;;;;-1.28;68.41;94602.00;5077372;28;20199;-79
2022/01/22 11:55:09;;;;;;;7.43;4.60;;;;;;;-1.20;69.06;94607.16;5082912;28;20201;-77
2022/01/22 11:57:39;;;;;;;10.80;6.03;;;;;;;-1.21;69.86;94605.56;5083910;28;20298;-78
2022/01/22 12:00:27;;;;;;;15.57;7.87;;;;;;;-1.33;70.63;94575.38;5071685;28;20204;-87
2022/01/22 12:03:24;;;;;;;19.50;8.13;;;;;;;-1.34;70.81;94579.66;5077087;28;20732;-79
2022/01/22 12:06:09;;;;;;;21.03;10.03;;;;;;;-1.37;71.28;94592.69;5063609;28;20583;-78
2022/01/22 12:09:11;;;;;;;14.70;6.50;;;;;;;-1.47;71.70;94586.09;5090673;28;20197;-79
2022/01/22 12:14:54;;;;;;;6.73;4.60;;;;;;;-1.35;76.34;94583.16;5090121;28;20756;-78
2022/01/22 12:18:05;;;;;;;7.27;4.40;;;;;;;-1.34;77.52;94579.66;5084748;28;20238;-87
2022/01/22 12:21:30;;;;;;;7.80;4.57;;;;;;;-1.26;77.86;94576.34;5071510;28;20677;-86
2022/01/22 12:23:50;;;;;;;11.90;6.33;;;;;;;-1.35;79.63;94580.59;5082372;28;20592;-86
2022/01/22 12:26:39;;;;;;;14.83;7.90;;;;;;;-1.20;79.79;94588.50;5091740;28;20721;-87
2022/01/22 12:29:37;;;;;;;15.87;8.73;;;;;;;-1.47;83.18;94578.44;5087229;28;20198;-87
2022/01/22 12:32:15;;;;;;;17.00;8.10;;;;;;;-1.62;87.45;94579.91;5071651;28;20728;-88
2022/01/22 12:35:09;;;;;;;17.63;7.53;;;;;;;-1.46;87.26;94574.94;5089334;28;20272;-78
2022/01/22 12:37:48;;;;;;;18.57;9.80;;;;;;;-1.45;87.21;94576.53;5089356;28;20224;-78
2022/01/22 12:40:30;;;;;;;23.57;11.07;;;;;;;-1.37;85.20;94581.69;5089347;28;20204;-78
2022/01/22 12:43:10;;;;;;;14.90;6.40;;;;;;;-1.44;79.75;94575.56;5089286;28;20207;-77
2022/01/22 12:45:41;;;;;;;20.33;8.07;;;;;;;-1.11;79.87;94579.19;5089373;28;20200;-78
2022/01/22 12:48:09;;;;;;;16.50;7.67;;;;;;;-0.88;77.95;94570.88;5071863;28;20537;-77
2022/01/22 12:50:38;;;;;;;10.23;5.40;;;;;;;-0.76;74.95;94568.88;5080100;28;20204;-79